Haworth, New Jersey
Current Conditions -  °F | °C
As of 2:51 PM on Thursday 27 Nov 2014 (Local Time) from KTEB Reporting Station
Overcast Overcast  
Wind Chill: 33°   Ceiling: 2800
Heat Index: 38°   Visibility: 10mi
Dew Point: 30°   Wind: 6mph
Humidity: 73%   Direction: 310°NW
Pressure: 29.98"   Gusts: NA
Location:  40.96°N, 73.99°W
Report Text: KTEB 271951Z 31005KT 10SM FEW017 SCT022 OVC028 03/M01 A2998 RMK AO2 SLP152 T00331011 $
Loading
Personal Weather Stations






























Interactive Weather Map New forecast layout! Learn more

10-Day Weather Forecast

Advertisements
Track Severe Weather on mobile